Time;durP1;ratioP1;P1;durP2;ratioP2;P2;SDS_P1;SDS_P2;PMS_P1;PMS_P2;Temp;Humidity;BMP_temperature;BMP_pressure;BME280_temperature;BME280_humidity;BME280_pressure;Samples;Min_cycle;Max_cycle;Signal;HPM_P1;HPM_P2
2021/01/20 00:02:02;;;;;;;1.42;0.80;;;5.30;99.90;;;;;;5065023;28;20041;-78
2021/01/20 00:04:28;;;;;;;1.17;0.50;;;5.30;99.90;;;;;;5069724;28;20031;-78
2021/01/20 00:06:53;;;;;;;2.03;0.90;;;5.30;99.90;;;;;;5064022;28;20037;-78
2021/01/20 00:09:19;;;;;;;1.52;0.40;;;5.40;99.90;;;;;;5070381;28;20375;-77
2021/01/20 00:11:45;;;;;;;1.00;0.65;;;5.40;99.90;;;;;;5071390;28;20424;-77
2021/01/20 00:14:18;;;;;;;1.58;0.70;;;5.40;99.90;;;;;;5068442;28;20032;-77
2021/01/20 00:16:44;;;;;;;1.90;0.80;;;5.30;99.90;;;;;;5067641;28;20057;-78
2021/01/20 00:19:10;;;;;;;1.48;0.80;;;5.30;99.90;;;;;;5070056;28;20041;-78
2021/01/20 00:21:36;;;;;;;1.33;0.80;;;5.30;99.90;;;;;;5070451;28;20135;-79
2021/01/20 00:24:02;;;;;;;1.77;0.77;;;5.20;99.90;;;;;;5070351;28;20099;-77
2021/01/20 00:26:28;;;;;;;1.00;0.60;;;5.20;99.90;;;;;;5063877;28;20052;-78
2021/01/20 00:28:53;;;;;;;1.20;0.60;;;5.30;99.90;;;;;;5069502;28;20483;-77
2021/01/20 00:31:19;;;;;;;1.25;0.60;;;5.30;99.90;;;;;;5071776;28;20033;-78
2021/01/20 00:33:45;;;;;;;1.50;0.60;;;5.30;99.90;;;;;;5071279;28;20240;-77
2021/01/20 00:36:11;;;;;;;1.63;0.88;;;5.30;99.90;;;;;;5067619;28;20086;-78
2021/01/20 00:38:36;;;;;;;1.17;0.73;;;5.30;99.90;;;;;;5069705;28;20063;-77
2021/01/20 00:41:02;;;;;;;1.20;0.70;;;5.40;99.90;;;;;;5065315;28;20480;-79
2021/01/20 00:43:29;;;;;;;0.98;0.50;;;5.40;99.90;;;;;;5063216;28;20044;-78
2021/01/20 00:45:55;;;;;;;1.08;0.50;;;5.50;99.90;;;;;;5070531;28;20410;-77
2021/01/20 00:48:21;;;;;;;0.68;0.55;;;5.60;99.90;;;;;;5069351;28;20032;-77
2021/01/20 00:50:46;;;;;;;1.10;0.50;;;5.60;99.90;;;;;;5070236;28;20482;-77
2021/01/20 00:53:12;;;;;;;0.52;0.35;;;5.60;99.90;;;;;;5065229;28;20682;-77
2021/01/20 00:55:38;;;;;;;1.73;0.60;;;5.70;99.90;;;;;;5070809;28;20525;-76
2021/01/20 00:58:03;;;;;;;1.25;0.60;;;5.70;99.90;;;;;;5066782;28;20036;-77
2021/01/20 01:00:29;;;;;;;1.70;0.60;;;5.80;99.90;;;;;;5082295;28;20028;-77
2021/01/20 01:02:55;;;;;;;1.25;0.50;;;5.80;99.90;;;;;;5061756;28;20029;-78
2021/01/20 01:05:20;;;;;;;0.70;0.50;;;5.90;99.90;;;;;;5066733;28;20033;-77
2021/01/20 01:07:46;;;;;;;0.75;0.40;;;5.90;99.90;;;;;;5066126;28;20104;-79
2021/01/20 01:10:12;;;;;;;1.02;0.50;;;5.90;99.90;;;;;;5068919;28;20028;-77
2021/01/20 01:12:38;;;;;;;0.60;0.50;;;5.90;99.90;;;;;;5064211;28;20029;-80
2021/01/20 01:15:05;;;;;;;0.73;0.57;;;5.70;99.90;;;;;;5064516;28;20475;-78
2021/01/20 01:17:31;;;;;;;0.80;0.40;;;5.90;99.90;;;;;;5065267;28;20305;-77
2021/01/20 01:19:56;;;;;;;0.88;0.50;;;6.10;99.90;;;;;;5060698;28;20180;-78
2021/01/20 01:22:22;;;;;;;0.47;0.40;;;6.10;99.90;;;;;;5069010;28;20522;-78
2021/01/20 01:24:48;;;;;;;0.95;0.50;;;5.90;99.90;;;;;;5069285;28;20035;-78
2021/01/20 01:27:13;;;;;;;0.70;0.40;;;5.80;99.90;;;;;;5069099;28;20089;-77
2021/01/20 01:29:39;;;;;;;0.93;0.60;;;5.60;99.90;;;;;;5068611;28;20024;-77
2021/01/20 01:32:06;;;;;;;1.05;0.60;;;5.40;99.90;;;;;;5067283;28;20043;-78
2021/01/20 01:34:32;;;;;;;1.63;0.60;;;5.30;99.90;;;;;;5065732;28;20024;-77
2021/01/20 01:36:58;;;;;;;0.75;0.50;;;5.20;99.90;;;;;;5069725;28;20030;-78
2021/01/20 01:39:24;;;;;;;1.05;0.55;;;5.00;99.90;;;;;;5065625;28;20403;-78
2021/01/20 01:41:50;;;;;;;0.70;0.57;;;5.00;99.90;;;;;;5068549;28;20052;-78
2021/01/20 01:44:17;;;;;;;0.52;0.50;;;4.90;99.90;;;;;;5068221;28;20106;-78
2021/01/20 01:46:44;;;;;;;1.00;0.50;;;4.80;99.90;;;;;;5067973;28;20024;-78
2021/01/20 01:49:09;;;;;;;0.88;0.50;;;4.80;99.90;;;;;;5071428;28;20039;-77
2021/01/20 01:51:35;;;;;;;2.00;0.60;;;4.70;99.90;;;;;;5059569;28;20025;-77
2021/01/20 01:54:01;;;;;;;1.15;0.57;;;4.70;99.90;;;;;;5075225;28;20463;-78
2021/01/20 01:56:27;;;;;;;0.73;0.40;;;4.60;99.90;;;;;;5068995;28;20082;-79
2021/01/20 01:58:54;;;;;;;1.30;0.47;;;4.60;99.90;;;;;;5068299;28;20029;-78
2021/01/20 02:01:20;;;;;;;0.35;0.32;;;4.50;99.90;;;;;;5068244;28;20024;-77
2021/01/20 02:03:49;;;;;;;1.17;0.70;;;4.50;99.90;;;;;;5067486;28;20090;-77
2021/01/20 02:06:15;;;;;;;0.63;0.47;;;4.40;99.90;;;;;;5065066;28;20410;-79
2021/01/20 02:08:43;;;;;;;1.63;0.63;;;4.30;99.90;;;;;;5064177;28;20109;-78
2021/01/20 02:11:45;;;;;;;1.10;0.52;;;4.30;99.90;;;;;;5068417;28;20100;-78
2021/01/20 02:14:26;;;;;;;0.82;0.43;;;4.20;99.90;;;;;;5070181;28;20074;-79
2021/01/20 02:17:06;;;;;;;2.47;0.50;;;4.30;99.90;;;;;;5068462;28;20059;-78
2021/01/20 02:19:50;;;;;;;1.02;0.50;;;4.40;99.90;;;;;;5067854;28;20051;-78
2021/01/20 02:22:25;;;;;;;0.65;0.35;;;4.60;99.90;;;;;;5063025;28;20399;-78
2021/01/20 02:25:22;;;;;;;0.90;0.55;;;4.70;99.90;;;;;;5063537;28;20118;-78
2021/01/20 02:28:09;;;;;;;0.98;0.52;;;4.70;99.90;;;;;;5065808;28;20378;-78
2021/01/20 02:30:36;;;;;;;0.73;0.40;;;4.80;99.90;;;;;;5060578;28;20021;-78
2021/01/20 02:33:04;;;;;;;1.73;0.60;;;4.70;99.90;;;;;;5066303;28;20031;-77
2021/01/20 02:35:30;;;;;;;1.50;0.50;;;4.70;99.90;;;;;;5068608;28;20020;-77
2021/01/20 02:37:56;;;;;;;1.77;0.60;;;4.60;99.90;;;;;;5067720;28;20682;-77
2021/01/20 02:40:22;;;;;;;1.42;0.68;;;4.60;99.90;;;;;;5066015;28;20024;-77
2021/01/20 02:42:48;;;;;;;0.50;0.40;;;4.60;99.90;;;;;;5079663;28;20032;-80
2021/01/20 02:45:15;;;;;;;0.80;0.50;;;4.60;99.90;;;;;;5065832;28;20052;-77
2021/01/20 02:47:42;;;;;;;1.88;0.60;;;4.50;99.90;;;;;;5072800;28;20062;-77
2021/01/20 02:50:09;;;;;;;1.25;0.63;;;4.50;99.90;;;;;;5063822;28;20025;-78
2021/01/20 02:52:47;;;;;;;1.85;0.73;;;4.30;99.90;;;;;;5067924;28;20090;-77
2021/01/20 02:55:17;;;;;;;1.58;0.70;;;4.20;99.90;;;;;;5065492;28;20021;-79
2021/01/20 02:57:46;;;;;;;1.00;0.70;;;4.20;99.90;;;;;;5077427;28;20027;-78
2021/01/20 03:00:13;;;;;;;1.13;0.70;;;4.10;99.90;;;;;;5061961;28;20098;-77
2021/01/20 03:02:42;;;;;;;1.23;0.57;;;4.10;99.90;;;;;;5067784;28;20036;-76
2021/01/20 03:05:11;;;;;;;1.13;0.60;;;4.00;99.90;;;;;;5064087;28;20570;-77
2021/01/20 03:07:39;;;;;;;1.38;0.70;;;4.10;99.90;;;;;;5064339;28;20071;-78
2021/01/20 03:10:09;;;;;;;1.83;0.70;;;4.00;99.90;;;;;;5065341;28;20108;-77
2021/01/20 03:12:36;;;;;;;1.58;0.70;;;4.00;99.90;;;;;;5062763;28;20037;-77
2021/01/20 03:15:05;;;;;;;1.73;0.80;;;4.00;99.90;;;;;;5065798;28;20052;-77
2021/01/20 03:17:31;;;;;;;1.05;0.77;;;3.90;99.90;;;;;;5064339;28;20029;-77
2021/01/20 03:19:58;;;;;;;1.73;0.70;;;3.90;99.90;;;;;;5071736;28;20028;-77
2021/01/20 03:22:23;;;;;;;1.00;0.60;;;3.90;99.90;;;;;;5071222;28;20356;-77
2021/01/20 03:24:49;;;;;;;0.95;0.60;;;4.00;99.90;;;;;;5070143;28;20051;-76
2021/01/20 03:27:15;;;;;;;1.42;0.60;;;4.00;99.90;;;;;;5070279;28;20138;-78
2021/01/20 03:29:41;;;;;;;0.95;0.50;;;4.00;99.90;;;;;;5070631;28;20025;-78
2021/01/20 03:32:07;;;;;;;1.52;0.60;;;4.00;99.90;;;;;;5068706;28;20024;-77
2021/01/20 03:34:34;;;;;;;1.38;0.50;;;4.00;99.90;;;;;;5068509;28;20021;-77
2021/01/20 03:37:01;;;;;;;1.48;0.50;;;4.00;99.90;;;;;;5071430;28;20028;-77
2021/01/20 03:39:26;;;;;;;1.40;0.52;;;4.00;99.90;;;;;;5068351;28;20025;-78
2021/01/20 03:41:52;;;;;;;1.90;0.70;;;4.00;99.90;;;;;;5069302;28;20036;-78
2021/01/20 03:44:17;;;;;;;0.68;0.50;;;4.00;99.90;;;;;;5066738;28;20032;-78
2021/01/20 03:46:43;;;;;;;0.88;0.50;;;3.90;99.90;;;;;;5070469;28;20036;-78
2021/01/20 03:49:09;;;;;;;1.52;1.15;;;3.80;99.90;;;;;;5069213;28;20480;-78
2021/01/20 03:51:34;;;;;;;1.23;0.50;;;3.70;99.90;;;;;;5075127;28;20554;-78
2021/01/20 03:54:00;;;;;;;1.10;0.75;;;3.70;99.90;;;;;;5065789;28;20027;-77
2021/01/20 03:56:26;;;;;;;0.98;0.60;;;3.60;99.90;;;;;;5072396;28;20032;-79
2021/01/20 03:58:52;;;;;;;1.85;0.65;;;3.60;99.90;;;;;;5073183;28;20467;-78
2021/01/20 04:01:17;;;;;;;2.28;0.75;;;3.50;99.90;;;;;;5069641;28;20029;-78
2021/01/20 04:03:43;;;;;;;1.65;0.68;;;3.40;99.90;;;;;;5070078;28;20059;-78
2021/01/20 04:06:10;;;;;;;1.55;0.65;;;3.30;99.90;;;;;;5072889;28;20028;-77
2021/01/20 04:08:35;;;;;;;1.92;0.70;;;3.20;99.90;;;;;;5072822;28;20036;-78
2021/01/20 04:11:02;;;;;;;2.30;0.80;;;3.10;99.90;;;;;;5076880;28;20037;-79
2021/01/20 04:13:28;;;;;;;1.30;0.80;;;3.10;99.90;;;;;;5065920;28;20020;-78
2021/01/20 04:15:53;;;;;;;1.77;0.80;;;3.10;99.90;;;;;;5063498;28;20481;-78
2021/01/20 04:18:19;;;;;;;1.38;0.70;;;3.00;99.90;;;;;;5070516;28;20094;-77
2021/01/20 04:20:44;;;;;;;1.00;0.47;;;3.00;99.90;;;;;;5061720;28;20085;-77
2021/01/20 04:23:10;;;;;;;1.60;0.63;;;3.00;99.90;;;;;;5059784;28;20031;-78
2021/01/20 04:25:36;;;;;;;1.92;0.60;;;3.10;99.90;;;;;;5063971;28;20124;-79
2021/01/20 04:28:01;;;;;;;0.93;0.55;;;3.10;99.90;;;;;;5067875;28;20039;-78
2021/01/20 04:30:27;;;;;;;1.27;0.60;;;3.10;99.90;;;;;;5063958;28;20391;-77
2021/01/20 04:32:53;;;;;;;0.70;0.47;;;3.20;99.90;;;;;;5061276;28;20021;-77
2021/01/20 04:35:19;;;;;;;1.42;0.50;;;3.30;99.90;;;;;;5066587;28;20020;-77
2021/01/20 04:37:45;;;;;;;0.90;0.50;;;3.30;99.90;;;;;;5069269;28;20114;-79
2021/01/20 04:40:11;;;;;;;1.92;0.60;;;3.40;99.90;;;;;;5063768;28;20028;-78
2021/01/20 04:42:37;;;;;;;2.75;0.60;;;3.50;99.90;;;;;;5068862;28;20051;-77
2021/01/20 04:45:03;;;;;;;1.63;0.50;;;3.50;99.90;;;;;;5068447;28;20063;-78
2021/01/20 04:47:29;;;;;;;1.35;0.60;;;3.50;99.90;;;;;;5067505;28;20020;-78
2021/01/20 04:49:57;;;;;;;1.13;0.50;;;3.40;99.90;;;;;;5085872;28;20487;-77
2021/01/20 04:52:25;;;;;;;0.90;0.60;;;3.40;99.90;;;;;;5068891;28;20025;-77
2021/01/20 04:54:52;;;;;;;1.63;0.60;;;3.40;99.90;;;;;;5069655;28;20582;-77
2021/01/20 04:57:18;;;;;;;1.15;0.52;;;3.40;99.90;;;;;;5071825;28;20031;-78
2021/01/20 04:59:44;;;;;;;1.08;0.70;;;3.40;99.90;;;;;;5065404;28;20974;-77
2021/01/20 05:02:10;;;;;;;2.10;0.52;;;3.40;99.90;;;;;;5069517;28;20044;-78
2021/01/20 05:04:41;;;;;;;1.73;0.60;;;3.40;99.90;;;;;;5067231;28;20109;-76
2021/01/20 05:07:08;;;;;;;1.23;0.60;;;3.40;99.90;;;;;;5069425;28;20039;-78
2021/01/20 05:09:34;;;;;;;1.48;0.70;;;3.40;99.90;;;;;;5064306;28;20044;-78
2021/01/20 05:12:00;;;;;;;1.13;0.50;;;3.30;99.90;;;;;;5068034;28;20490;-77
2021/01/20 05:14:25;;;;;;;0.98;0.47;;;3.40;99.90;;;;;;5065127;28;20038;-78
2021/01/20 05:16:53;;;;;;;1.48;0.60;;;3.40;99.90;;;;;;5065953;28;20052;-79
2021/01/20 05:19:39;;;;;;;2.15;0.73;;;3.40;99.90;;;;;;5061054;28;20055;-81
2021/01/20 05:22:07;;;;;;;2.00;0.75;;;3.40;99.90;;;;;;5060914;28;20036;-79
2021/01/20 05:24:37;;;;;;;2.88;0.90;;;3.40;99.90;;;;;;5064869;28;20025;-78
2021/01/20 05:27:04;;;;;;;0.95;0.70;;;3.40;99.90;;;;;;5068616;28;20074;-78
2021/01/20 05:29:30;;;;;;;2.25;0.70;;;3.40;99.90;;;;;;5069978;28;20095;-78
2021/01/20 05:31:56;;;;;;;1.20;0.65;;;3.30;99.90;;;;;;5062858;28;20033;-78
2021/01/20 05:34:32;;;;;;;1.63;0.80;;;3.30;99.90;;;;;;5066743;28;20035;-78
2021/01/20 05:37:07;;;;;;;1.35;0.82;;;3.30;99.90;;;;;;5066415;28;20024;-78
2021/01/20 05:39:34;;;;;;;1.60;0.80;;;3.20;99.90;;;;;;5067259;28;20044;-74
2021/01/20 05:42:04;;;;;;;1.42;0.80;;;3.20;99.90;;;;;;5064472;28;20032;-76
2021/01/20 05:44:30;;;;;;;1.30;0.88;;;3.10;99.90;;;;;;5067500;28;20032;-77
2021/01/20 05:46:56;;;;;;;1.33;0.73;;;3.10;99.90;;;;;;5063284;28;20033;-77
2021/01/20 05:49:29;;;;;;;2.38;1.00;;;3.10;99.90;;;;;;5068889;28;20391;-78
2021/01/20 05:51:55;;;;;;;1.90;0.90;;;3.10;99.90;;;;;;5069324;28;20036;-78
2021/01/20 05:54:37;;;;;;;2.08;0.88;;;3.10;99.90;;;;;;5068571;28;20488;-80
2021/01/20 05:57:19;;;;;;;2.38;0.80;;;3.00;99.90;;;;;;5064714;28;20025;-79
2021/01/20 05:59:48;;;;;;;2.05;0.80;;;3.00;99.90;;;;;;5068471;28;20035;-78
2021/01/20 06:02:15;;;;;;;1.98;1.13;;;3.00;99.90;;;;;;5071144;28;20044;-79
2021/01/20 06:04:42;;;;;;;1.90;0.88;;;3.00;99.90;;;;;;5069219;28;20463;-79
2021/01/20 06:07:15;;;;;;;2.72;1.33;;;3.00;99.90;;;;;;5067608;28;20021;-78
2021/01/20 06:09:45;;;;;;;2.28;0.95;;;2.90;99.90;;;;;;5068617;28;20025;-78
2021/01/20 06:12:13;;;;;;;4.38;1.10;;;2.90;99.90;;;;;;5068035;28;20040;-78
2021/01/20 06:14:39;;;;;;;3.03;1.00;;;2.90;99.90;;;;;;5066932;28;20071;-80
2021/01/20 06:17:28;;;;;;;3.42;1.25;;;2.90;99.90;;;;;;5066144;28;20017;-79
2021/01/20 06:20:01;;;;;;;4.50;1.35;;;2.90;99.90;;;;;;5036379;28;20045;-78
2021/01/20 06:22:27;;;;;;;2.40;1.42;;;2.90;99.90;;;;;;5033202;28;20094;-77
2021/01/20 06:25:18;;;;;;;3.38;1.13;;;2.90;99.90;;;;;;5042932;28;20024;-77
2021/01/20 06:27:53;;;;;;;3.10;1.50;;;3.00;99.90;;;;;;5031597;28;20033;-75
2021/01/20 06:30:34;;;;;;;2.20;0.90;;;3.00;99.90;;;;;;5048339;28;20027;-78
2021/01/20 06:33:06;;;;;;;1.65;0.70;;;3.10;99.90;;;;;;5045205;28;20021;-78
2021/01/20 06:35:45;;;;;;;2.00;1.00;;;3.00;99.90;;;;;;5054963;28;20372;-79
2021/01/20 06:38:33;;;;;;;2.15;0.80;;;3.10;99.90;;;;;;5044363;28;20394;-78
2021/01/20 06:41:29;;;;;;;1.73;0.82;;;3.10;99.90;;;;;;5026542;28;20040;-79
2021/01/20 06:44:07;;;;;;;1.98;0.90;;;3.20;99.90;;;;;;5030154;28;20056;-78
2021/01/20 06:46:33;;;;;;;2.08;0.90;;;3.20;99.90;;;;;;5048597;28;20104;-78
2021/01/20 06:48:59;;;;;;;1.58;0.68;;;3.20;99.90;;;;;;5044105;28;20097;-81
2021/01/20 06:51:28;;;;;;;1.52;0.82;;;3.20;99.90;;;;;;5047115;28;20136;-79
2021/01/20 06:54:02;;;;;;;1.75;0.80;;;3.20;99.90;;;;;;5047384;28;20048;-75
2021/01/20 06:56:37;;;;;;;1.85;0.95;;;3.20;99.90;;;;;;5046344;28;20447;-76
2021/01/20 06:59:18;;;;;;;2.78;1.00;;;3.20;99.90;;;;;;5047874;28;20434;-74
2021/01/20 07:02:04;;;;;;;3.55;1.13;;;3.20;99.90;;;;;;5048369;28;20032;-75
2021/01/20 07:04:38;;;;;;;2.72;1.10;;;3.20;99.90;;;;;;5045717;28;20113;-75
2021/01/20 07:07:08;;;;;;;2.35;0.95;;;3.20;99.90;;;;;;5040336;28;20642;-74
2021/01/20 07:09:49;;;;;;;3.15;1.25;;;3.20;99.90;;;;;;5046048;28;20067;-74
2021/01/20 07:12:18;;;;;;;2.50;1.08;;;3.30;99.90;;;;;;5043987;28;20133;-75
2021/01/20 07:14:45;;;;;;;2.33;0.93;;;3.30;99.90;;;;;;5047350;28;20029;-75
2021/01/20 07:17:12;;;;;;;1.58;0.77;;;3.40;99.90;;;;;;5042583;28;20030;-76
2021/01/20 07:19:38;;;;;;;2.92;0.95;;;3.40;99.90;;;;;;5046796;28;20033;-75
2021/01/20 07:22:05;;;;;;;2.17;1.05;;;3.50;99.90;;;;;;5047037;28;20032;-75
2021/01/20 07:24:31;;;;;;;3.33;1.20;;;3.60;99.90;;;;;;5046639;28;20036;-76
2021/01/20 07:27:03;;;;;;;2.65;0.88;;;3.60;99.90;;;;;;5047256;28;20021;-76
2021/01/20 07:29:30;;;;;;;2.10;0.90;;;3.70;99.90;;;;;;5047781;28;20025;-74
2021/01/20 07:31:56;;;;;;;1.88;0.95;;;3.70;99.90;;;;;;5045736;28;20498;-77
2021/01/20 07:34:32;;;;;;;2.25;0.88;;;3.70;99.90;;;;;;5042365;28;20025;-76
2021/01/20 07:37:09;;;;;;;2.80;1.10;;;3.70;99.90;;;;;;5047775;28;20067;-76
2021/01/20 07:39:34;;;;;;;3.63;1.27;;;3.70;99.90;;;;;;5043632;28;20056;-74
2021/01/20 07:42:00;;;;;;;2.10;1.17;;;3.80;99.90;;;;;;5042681;28;20072;-74
2021/01/20 07:44:26;;;;;;;3.30;1.40;;;3.80;99.90;;;;;;5046087;28;20044;-76
2021/01/20 07:47:02;;;;;;;2.42;1.00;;;3.90;99.90;;;;;;5046510;28;21014;-74
2021/01/20 07:49:29;;;;;;;2.28;1.00;;;3.90;99.90;;;;;;5047979;28;20049;-74
2021/01/20 07:52:00;;;;;;;1.80;0.98;;;4.00;99.90;;;;;;5043906;28;20053;-77
2021/01/20 07:54:34;;;;;;;2.40;1.00;;;4.00;99.90;;;;;;5051336;28;20110;-76
2021/01/20 07:57:00;;;;;;;4.20;1.60;;;4.10;99.90;;;;;;5050223;28;20057;-74
2021/01/20 07:59:26;;;;;;;3.72;1.10;;;4.10;99.90;;;;;;5050926;28;20211;-75
2021/01/20 08:01:51;;;;;;;3.13;1.30;;;4.10;99.90;;;;;;5046912;28;20041;-75
2021/01/20 08:04:22;;;;;;;2.13;1.10;;;4.20;99.90;;;;;;5047647;28;20033;-75
2021/01/20 08:06:47;;;;;;;2.40;1.20;;;4.10;99.90;;;;;;5044441;28;20025;-76
2021/01/20 08:09:13;;;;;;;2.08;1.00;;;4.20;99.90;;;;;;5049088;28;20032;-76
2021/01/20 08:11:41;;;;;;;1.77;1.02;;;4.20;99.90;;;;;;5046314;28;20028;-75
2021/01/20 08:14:08;;;;;;;2.40;1.08;;;4.30;99.90;;;;;;5050596;28;20032;-75
2021/01/20 08:16:34;;;;;;;3.22;1.25;;;4.30;99.90;;;;;;5047188;28;20029;-75
2021/01/20 08:19:02;;;;;;;2.60;1.17;;;4.40;99.90;;;;;;5055217;28;20044;-76
2021/01/20 08:21:28;;;;;;;4.57;1.40;;;4.60;99.90;;;;;;5061151;28;20035;-75
2021/01/20 08:23:58;;;;;;;2.95;1.33;;;4.60;99.90;;;;;;5066851;28;20387;-74
2021/01/20 08:26:30;;;;;;;2.83;1.00;;;4.70;99.90;;;;;;5063661;28;20135;-75
2021/01/20 08:29:06;;;;;;;2.58;1.27;;;4.80;99.90;;;;;;5065336;28;20495;-76
2021/01/20 08:31:32;;;;;;;1.45;0.90;;;4.80;99.90;;;;;;5067840;28;20092;-77
2021/01/20 08:34:20;;;;;;;2.88;1.30;;;4.80;99.90;;;;;;5063364;28;20108;-75
2021/01/20 08:36:51;;;;;;;1.95;1.02;;;4.90;99.90;;;;;;5060737;28;20119;-76
2021/01/20 08:39:17;;;;;;;1.92;0.90;;;5.00;99.90;;;;;;5068565;28;20029;-76
2021/01/20 08:42:18;;;;;;;3.53;1.08;;;5.10;99.90;;;;;;5070064;28;20395;-78
2021/01/20 08:45:16;;;;;;;2.42;1.20;;;5.20;99.90;;;;;;5069708;28;20425;-76
2021/01/20 08:47:45;;;;;;;1.83;1.02;;;5.30;99.90;;;;;;5065413;28;20036;-76
2021/01/20 08:50:16;;;;;;;2.45;1.27;;;5.50;99.90;;;;;;5068972;28;20369;-77
2021/01/20 08:52:51;;;;;;;3.40;1.10;;;5.60;99.90;;;;;;5067908;28;20455;-76
2021/01/20 08:55:26;;;;;;;3.75;1.17;;;5.70;99.90;;;;;;5075437;28;20490;-75
2021/01/20 08:58:22;;;;;;;2.70;1.25;;;5.80;99.90;;;;;;5069261;28;20032;-76
2021/01/20 09:00:53;;;;;;;2.60;1.15;;;6.00;99.90;;;;;;5064405;28;20107;-75
2021/01/20 09:03:21;;;;;;;2.58;1.40;;;6.00;99.90;;;;;;5068056;28;20079;-75
2021/01/20 09:05:49;;;;;;;1.85;1.10;;;6.10;99.90;;;;;;5063785;28;20028;-79
2021/01/20 09:08:15;;;;;;;2.47;0.98;;;6.20;99.90;;;;;;5065183;28;20198;-76
2021/01/20 09:10:42;;;;;;;2.60;0.82;;;6.20;99.90;;;;;;5068251;28;20021;-78
2021/01/20 09:13:08;;;;;;;2.92;1.10;;;6.30;99.90;;;;;;5069512;28;20544;-75
2021/01/20 09:15:34;;;;;;;3.05;0.98;;;6.50;99.90;;;;;;5064486;28;20116;-78
2021/01/20 09:17:59;;;;;;;3.55;1.10;;;6.60;99.90;;;;;;5051485;28;20498;-77
2021/01/20 09:20:25;;;;;;;1.45;0.70;;;6.80;99.90;;;;;;5062643;28;20044;-75
2021/01/20 09:22:51;;;;;;;0.80;0.57;;;6.80;99.90;;;;;;5071707;28;20029;-77
2021/01/20 09:25:17;;;;;;;1.92;0.80;;;6.80;99.90;;;;;;5067085;28;20051;-76
2021/01/20 09:27:43;;;;;;;2.25;0.88;;;6.80;99.90;;;;;;5069015;28;20032;-77
2021/01/20 09:30:09;;;;;;;2.13;1.02;;;6.80;99.90;;;;;;5067687;28;20132;-77
2021/01/20 09:32:38;;;;;;;1.15;0.70;;;6.80;99.90;;;;;;5067342;28;20029;-83
2021/01/20 09:35:10;;;;;;;3.47;1.10;;;6.90;99.90;;;;;;5066840;28;20070;-76
2021/01/20 09:37:35;;;;;;;1.67;0.90;;;7.00;99.90;;;;;;5068670;28;20498;-76
2021/01/20 09:40:03;;;;;;;1.58;0.80;;;7.00;99.90;;;;;;5067760;28;20028;-78
2021/01/20 09:42:29;;;;;;;1.30;0.70;;;7.10;99.90;;;;;;5067407;28;20168;-77
2021/01/20 09:44:54;;;;;;;1.52;0.70;;;7.00;99.90;;;;;;5058611;28;20028;-75
2021/01/20 09:47:20;;;;;;;1.35;0.70;;;7.10;99.90;;;;;;5066974;28;20373;-74
2021/01/20 09:49:46;;;;;;;1.33;0.70;;;7.10;99.90;;;;;;5062631;28;20159;-74
2021/01/20 09:52:15;;;;;;;1.30;0.90;;;7.20;99.90;;;;;;5066800;28;20032;-75
2021/01/20 09:54:42;;;;;;;1.73;0.98;;;;;;;;;;5069273;28;20021;-74
2021/01/20 09:57:08;;;;;;;1.65;0.73;;;;;;;;;;5065484;28;20024;-76
2021/01/20 09:59:34;;;;;;;2.17;0.90;;;;;;;;;;5069169;28;20035;-75
2021/01/20 10:02:00;;;;;;;1.85;0.80;;;;;;;;;;5066295;28;20048;-77
2021/01/20 10:04:26;;;;;;;1.13;0.55;;;;;;;;;;5068481;28;20044;-75
2021/01/20 10:06:55;;;;;;;1.65;1.00;;;;;;;;;;5068515;28;20466;-74
2021/01/20 10:09:21;;;;;;;1.00;0.68;;;;;;;;;;5068608;28;20119;-76
2021/01/20 10:11:49;;;;;;;1.40;0.70;;;;;;;;;;5068142;28;20467;-76
2021/01/20 10:14:16;;;;;;;1.70;0.75;;;;;;;;;;5064906;28;20467;-76
2021/01/20 10:16:46;;;;;;;2.97;0.52;;;;;;;;;;5067859;28;20028;-75
2021/01/20 10:19:12;;;;;;;2.80;0.85;;;;;;;;;;5043789;28;20045;-75
2021/01/20 10:21:37;;;;;;;2.55;0.82;;;8.10;99.90;;;;;;5046210;28;20467;-76
2021/01/20 10:24:03;;;;;;;1.63;0.60;;;8.20;99.90;;;;;;5045749;28;20041;-76
2021/01/20 10:26:29;;;;;;;2.97;1.20;;;8.30;99.90;;;;;;5048576;28;20041;-75
2021/01/20 10:28:54;;;;;;;1.88;0.95;;;8.50;99.90;;;;;;5048995;28;20040;-77
2021/01/20 10:31:20;;;;;;;1.33;0.70;;;8.50;99.90;;;;;;5049944;28;20021;-74
2021/01/20 10:33:45;;;;;;;1.35;0.75;;;8.60;99.90;;;;;;5047830;28;20115;-75
2021/01/20 10:36:11;;;;;;;1.95;0.70;;;8.80;99.90;;;;;;5047893;28;20490;-76
2021/01/20 10:38:37;;;;;;;1.75;0.95;;;8.90;99.90;;;;;;5048005;28;20029;-77
2021/01/20 10:41:02;;;;;;;4.07;1.08;;;9.00;99.90;;;;;;5047761;28;20021;-74
2021/01/20 10:43:28;;;;;;;1.95;0.73;;;9.10;99.90;;;;;;5047576;28;20039;-76
2021/01/20 10:45:58;;;;;;;2.20;0.80;;;9.10;99.90;;;;;;5046867;28;20587;-75
2021/01/20 10:48:24;;;;;;;1.98;0.77;;;9.10;99.90;;;;;;5046694;28;20021;-75
2021/01/20 10:50:50;;;;;;;3.22;0.85;;;9.20;99.90;;;;;;5026602;28;20036;-77
2021/01/20 10:53:15;;;;;;;1.88;0.82;;;9.20;99.90;;;;;;5047113;28;20044;-77
2021/01/20 10:55:41;;;;;;;1.60;0.63;;;9.20;99.90;;;;;;5045835;28;20472;-76
2021/01/20 10:58:06;;;;;;;1.08;0.60;;;9.10;99.90;;;;;;5046137;28;20029;-76
2021/01/20 11:00:32;;;;;;;4.35;0.80;;;9.00;99.90;;;;;;5044065;28;20029;-75
2021/01/20 11:02:58;;;;;;;1.60;0.60;;;8.90;99.90;;;;;;5045404;28;20033;-75
2021/01/20 11:05:23;;;;;;;2.35;1.42;;;8.90;99.90;;;;;;5046726;28;20033;-75
2021/01/20 11:07:49;;;;;;;4.28;1.10;;;8.90;99.90;;;;;;5048094;28;20033;-75
2021/01/20 11:10:14;;;;;;;4.57;2.30;;;9.00;99.90;;;;;;5046698;28;20040;-75
2021/01/20 11:12:41;;;;;;;6.45;2.50;;;8.80;99.90;;;;;;5044496;28;20033;-74
2021/01/20 11:15:07;;;;;;;9.98;3.00;;;8.60;99.90;;;;;;5053693;28;20017;-76
2021/01/20 11:17:32;;;;;;;5.82;2.40;;;8.40;99.90;;;;;;5050204;28;20048;-73
2021/01/20 11:19:58;;;;;;;5.75;2.60;;;8.50;99.90;;;;;;5067838;28;20024;-77
2021/01/20 11:22:24;;;;;;;6.13;2.45;;;8.60;99.90;;;;;;5068007;28;20071;-75
2021/01/20 11:24:58;;;;;;;6.85;2.47;;;8.50;99.90;;;;;;5069019;28;20490;-76
2021/01/20 11:27:24;;;;;;;4.03;1.92;;;8.60;99.90;;;;;;5072716;28;20029;-75
2021/01/20 11:29:50;;;;;;;6.55;2.38;;;8.50;99.90;;;;;;5071655;28;20432;-75
2021/01/20 11:32:15;;;;;;;6.85;2.17;;;8.40;99.90;;;;;;5067416;28;20036;-74
2021/01/20 11:34:41;;;;;;;5.68;2.42;;;8.30;99.90;;;;;;5074927;28;20102;-75
2021/01/20 11:37:07;;;;;;;4.53;2.28;;;8.50;99.90;;;;;;5071594;28;20039;-76
2021/01/20 11:39:36;;;;;;;7.20;2.10;;;8.40;99.90;;;;;;5071917;28;20056;-75
2021/01/20 11:42:02;;;;;;;6.85;2.60;;;8.40;99.90;;;;;;5061240;28;20033;-75
2021/01/20 11:44:28;;;;;;;5.13;2.58;;;8.60;99.90;;;;;;5071047;28;20767;-75
2021/01/20 11:46:53;;;;;;;6.63;2.20;;;8.70;99.90;;;;;;5071538;28;20025;-75
2021/01/20 11:49:19;;;;;;;4.88;2.22;;;8.60;99.90;;;;;;5071431;28;20025;-76
2021/01/20 11:51:45;;;;;;;5.22;2.30;;;8.70;99.90;;;;;;5071629;28;20024;-78
2021/01/20 11:54:10;;;;;;;9.20;3.90;;;8.90;99.90;;;;;;5070229;28;20116;-75
2021/01/20 11:56:37;;;;;;;6.43;2.67;;;9.20;99.90;;;;;;5071880;28;20120;-76
2021/01/20 11:59:02;;;;;;;7.75;2.75;;;9.40;99.90;;;;;;5069874;28;20107;-75
2021/01/20 12:01:32;;;;;;;9.35;3.90;;;9.30;99.90;;;;;;5066144;28;20116;-76
2021/01/20 12:03:58;;;;;;;;;;;9.60;99.90;;;;;;5071619;28;20572;-74
2021/01/20 12:06:24;;;;;;;6.80;2.85;;;9.70;99.90;;;;;;5065178;28;19947;-76
2021/01/20 12:08:49;;;;;;;5.03;2.30;;;9.90;99.90;;;;;;5064200;28;20104;-77
2021/01/20 12:11:15;;;;;;;5.53;2.00;;;9.80;99.90;;;;;;5069477;28;20459;-75
2021/01/20 12:13:40;;;;;;;3.83;2.05;;;9.80;99.90;;;;;;5068082;28;20028;-77
2021/01/20 12:16:06;;;;;;;5.35;2.10;;;9.90;99.90;;;;;;5069823;28;20028;-77
2021/01/20 12:18:32;;;;;;;4.13;2.00;;;9.90;99.90;;;;;;5057685;28;20613;-77
2021/01/20 12:20:59;;;;;;;5.30;2.42;;;9.80;99.90;;;;;;5050226;28;20044;-75
2021/01/20 12:23:25;;;;;;;5.05;1.25;;;9.90;99.90;;;;;;5050241;28;20028;-78
2021/01/20 12:25:52;;;;;;;3.72;1.20;;;9.90;99.90;;;;;;5048970;28;20025;-74
2021/01/20 12:28:17;;;;;;;7.68;4.60;;;10.00;99.90;;;;;;5047133;28;20036;-75
2021/01/20 12:30:43;;;;;;;7.07;3.60;;;10.10;99.90;;;;;;5046875;28;20032;-76
2021/01/20 12:33:08;;;;;;;4.43;2.45;;;10.20;99.90;;;;;;5050201;28;20082;-76
2021/01/20 12:35:34;;;;;;;3.45;1.50;;;10.40;99.90;;;;;;5045140;28;20049;-77
2021/01/20 12:38:00;;;;;;;1.83;1.13;;;10.40;99.90;;;;;;5049214;28;20033;-77
2021/01/20 12:40:26;;;;;;;3.58;1.75;;;10.50;99.90;;;;;;5052295;28;20052;-77
2021/01/20 12:42:52;;;;;;;1.77;0.77;;;10.60;99.90;;;;;;5048199;28;20044;-75
2021/01/20 12:45:18;;;;;;;2.92;1.45;;;10.50;99.90;;;;;;5047506;28;20040;-76
2021/01/20 12:47:43;;;;;;;3.10;1.13;;;10.60;99.90;;;;;;5043916;28;20029;-76
2021/01/20 12:50:09;;;;;;;3.10;1.58;;;10.60;99.90;;;;;;5048957;28;20024;-76
2021/01/20 12:52:35;;;;;;;4.68;1.65;;;10.60;99.90;;;;;;5046463;28;20039;-75
2021/01/20 12:55:01;;;;;;;1.75;0.80;;;10.50;99.90;;;;;;5047381;28;20100;-75
2021/01/20 12:57:26;;;;;;;1.60;0.70;;;10.70;99.90;;;;;;5047640;28;20052;-76
2021/01/20 12:59:52;;;;;;;3.20;0.70;;;10.80;99.90;;;;;;5048594;28;20067;-75
2021/01/20 13:02:17;;;;;;;1.55;0.90;;;11.00;99.90;;;;;;5048075;28;20357;-75
2021/01/20 13:04:43;;;;;;;5.80;3.63;;;10.90;99.90;;;;;;5046095;28;20038;-75
2021/01/20 13:07:09;;;;;;;3.13;1.10;;;10.90;99.90;;;;;;5050001;28;20452;-75